Time,TemperatureF,DewpointF,PressureIn,WindDirection,WindDirectionDegrees,WindSpeedMPH,WindSpeedGustMPH,Humidity,HourlyPrecipIn,Conditions,Clouds,dailyrainin,SoftwareType,DateUTC
2014-01-01 00:00:00,40.6,39.0,30.35,NNW,333,0.0,0.0,94,0.00,,---,0.00,VWS V14.01,2014-01-01 05:00:00,
2014-01-01 00:01:00,40.6,39.0,30.35,NNW,333,0.0,0.0,94,0.00,,---,0.00,VWS V14.01,2014-01-01 05:01:00,
2014-01-01 00:02:00,40.5,38.9,30.34,NNW,333,0.0,0.0,94,0.00,,---,0.00,VWS V14.01,2014-01-01 05:02:00,
2014-01-01 00:07:00,40.2,38.6,30.34,NNW,333,0.0,0.0,94,0.00,,---,0.00,VWS V14.01,2014-01-01 05:07:00,
2014-01-01 00:12:00,40.1,38.5,30.34,NNW,333,0.0,0.0,94,0.00,,---,0.00,VWS V14.01,2014-01-01 05:12:00,
2014-01-01 00:17:00,40.0,38.4,30.34,NNW,333,0.0,0.0,94,0.00,,---,0.00,VWS V14.01,2014-01-01 05:17:00,
2014-01-01 00:22:00,39.9,38.3,30.34,NNW,333,0.0,0.0,94,0.00,,---,0.00,VWS V14.01,2014-01-01 05:22:00,
2014-01-01 00:27:00,39.7,38.1,30.34,NNW,333,0.0,0.0,94,0.00,,---,0.00,VWS V14.01,2014-01-01 05:27:00,
2014-01-01 00:32:00,39.7,38.1,30.34,NNW,333,0.0,0.0,94,0.00,,---,0.00,VWS V14.01,2014-01-01 05:32:00,
2014-01-01 00:37:00,39.7,38.1,30.34,NNW,333,0.0,0.0,94,0.00,,---,0.00,VWS V14.01,2014-01-01 05:37:00,
2014-01-01 00:41:00,39.6,38.0,30.34,NNW,333,0.0,0.0,94,0.00,,---,0.00,VWS V14.01,2014-01-01 05:41:00,
2014-01-01 00:46:00,39.5,37.9,30.34,NNW,333,0.0,0.0,94,0.00,,---,0.00,VWS V14.01,2014-01-01 05:46:00,
2014-01-01 00:51:00,39.4,37.8,30.35,NNW,333,0.0,0.0,94,0.00,,---,0.00,VWS V14.01,2014-01-01 05:51:00,
2014-01-01 00:56:00,39.4,37.8,30.34,NNW,333,0.0,0.0,94,0.00,,---,0.00,VWS V14.01,2014-01-01 05:56:00,
2014-01-01 01:00:00,39.4,37.8,30.34,NNW,333,0.0,0.0,94,0.00,,---,0.00,VWS V14.01,2014-01-01 06:00:00,
2014-01-01 01:01:00,39.4,37.8,30.34,NNW,333,0.0,0.0,94,0.00,,---,0.00,VWS V14.01,2014-01-01 06:01:00,
2014-01-01 01:06:00,39.5,37.9,30.34,NNW,333,0.0,0.0,94,0.00,,---,0.00,VWS V14.01,2014-01-01 06:06:00,
2014-01-01 01:11:00,39.6,38.3,30.33,NNW,333,0.0,0.0,95,0.00,,---,0.00,VWS V14.01,2014-01-01 06:11:00,
2014-01-01 01:14:00,39.8,38.5,30.33,NNW,333,0.0,0.0,95,0.00,,---,0.00,VWS V14.01,2014-01-01 06:14:00,
2014-01-01 01:19:00,40.2,38.9,30.33,NNW,333,0.0,0.0,95,0.00,,---,0.00,VWS V14.01,2014-01-01 06:19:00,
2014-01-01 01:24:00,40.5,39.2,30.33,NNW,333,0.0,2.0,95,0.00,,---,0.00,VWS V14.01,2014-01-01 06:24:00,
2014-01-01 01:29:00,40.8,39.5,30.33,NNW,333,0.0,2.0,95,0.00,,---,0.00,VWS V14.01,2014-01-01 06:29:00,
2014-01-01 01:34:00,40.6,39.3,30.33,NNW,333,0.0,2.0,95,0.00,,---,0.00,VWS V14.01,2014-01-01 06:34:00,
2014-01-01 01:39:00,40.2,38.6,30.33,NNW,333,0.0,2.0,94,0.00,,---,0.00,VWS V14.01,2014-01-01 06:39:00,
2014-01-01 01:44:00,39.9,38.3,30.33,NNW,333,0.0,2.0,94,0.00,,---,0.00,VWS V14.01,2014-01-01 06:44:00,
2014-01-01 01:49:00,39.6,38.0,30.33,NNW,333,0.0,2.0,94,0.00,,---,0.00,VWS V14.01,2014-01-01 06:49:00,
2014-01-01 01:54:00,39.3,37.7,30.33,NNW,333,0.0,2.0,94,0.00,,---,0.00,VWS V14.01,2014-01-01 06:54:00,
2014-01-01 01:55:00,39.2,37.6,30.33,NNW,333,0.0,2.0,94,0.00,,---,0.00,VWS V14.01,2014-01-01 06:55:00,
2014-01-01 02:00:00,39.2,37.6,30.33,NNW,333,0.0,2.0,94,0.00,,---,0.00,VWS V14.01,2014-01-01 07:00:00,
2014-01-01 02:05:00,39.3,37.7,30.34,NNW,333,0.0,0.0,94,0.00,,---,0.00,VWS V14.01,2014-01-01 07:05:00,
2014-01-01 02:10:00,39.2,37.6,30.34,NNW,333,0.0,0.0,94,0.00,,---,0.00,VWS V14.01,2014-01-01 07:10:00,
2014-01-01 02:15:00,39.1,37.5,30.33,NNW,333,0.0,0.0,94,0.00,,---,0.00,VWS V14.01,2014-01-01 07:15:00,
2014-01-01 02:20:00,39.0,37.4,30.34,NNW,333,0.0,0.0,94,0.00,,---,0.00,VWS V14.01,2014-01-01 07:20:00,
2014-01-01 02:22:00,39.0,37.4,30.34,NNW,333,0.0,0.0,94,0.00,,---,0.00,VWS V14.01,2014-01-01 07:22:00,
2014-01-01 02:27:00,38.8,37.2,30.35,NNW,333,0.0,0.0,94,0.00,,---,0.00,VWS V14.01,2014-01-01 07:27:00,
2014-01-01 02:32:00,38.7,37.1,30.35,NNW,333,0.0,0.0,94,0.00,,---,0.00,VWS V14.01,2014-01-01 07:32:00,
2014-01-01 02:37:00,38.6,37.0,30.34,NNW,333,0.0,0.0,94,0.00,,---,0.00,VWS V14.01,2014-01-01 07:37:00,
2014-01-01 02:42:00,38.6,37.0,30.35,NNW,333,0.0,0.0,94,0.00,,---,0.00,VWS V14.01,2014-01-01 07:42:00,
2014-01-01 02:47:00,38.8,37.5,30.34,NNW,333,0.0,0.0,95,0.00,,---,0.00,VWS V14.01,2014-01-01 07:47:00,
2014-01-01 02:52:00,38.7,37.1,30.34,NNW,333,0.0,0.0,94,0.00,,---,0.00,VWS V14.01,2014-01-01 07:52:00,
2014-01-01 02:57:00,38.4,36.8,30.34,NNW,333,0.0,0.0,94,0.00,,---,0.00,VWS V14.01,2014-01-01 07:57:00,
2014-01-01 03:00:00,38.3,36.7,30.34,NNW,333,0.0,0.0,94,0.00,,---,0.00,VWS V14.01,2014-01-01 08:00:00,
2014-01-01 03:05:00,37.9,36.3,30.34,NNW,333,0.0,0.0,94,0.00,,---,0.00,VWS V14.01,2014-01-01 08:05:00,
2014-01-01 03:10:00,37.7,36.1,30.34,NNW,333,0.0,0.0,94,0.00,,---,0.00,VWS V14.01,2014-01-01 08:10:00,
2014-01-01 03:15:00,37.6,36.0,30.34,NNW,333,0.0,0.0,94,0.00,,---,0.00,VWS V14.01,2014-01-01 08:15:00,
2014-01-01 03:20:00,37.8,36.5,30.34,NNW,333,0.0,0.0,95,0.00,,---,0.00,VWS V14.01,2014-01-01 08:20:00,
2014-01-01 03:25:00,38.0,36.7,30.33,NNW,333,0.0,0.0,95,0.00,,---,0.00,VWS V14.01,2014-01-01 08:25:00,
2014-01-01 03:30:00,38.0,36.7,30.33,NNW,333,0.0,0.0,95,0.00,,---,0.00,VWS V14.01,2014-01-01 08:30:00,
2014-01-01 03:35:00,38.0,36.7,30.33,NNW,333,0.0,0.0,95,0.00,,---,0.00,VWS V14.01,2014-01-01 08:35:00,
2014-01-01 03:40:00,38.3,37.0,30.34,NNW,333,0.0,0.0,95,0.00,,---,0.00,VWS V14.01,2014-01-01 08:40:00,
2014-01-01 03:45:00,38.4,37.1,30.34,NNW,333,0.0,0.0,95,0.00,,---,0.00,VWS V14.01,2014-01-01 08:45:00,
2014-01-01 03:50:00,38.4,37.1,30.34,NNW,333,0.0,0.0,95,0.00,,---,0.00,VWS V14.01,2014-01-01 08:50:00,
2014-01-01 03:55:00,38.4,37.1,30.34,NNW,333,0.0,0.0,95,0.00,,---,0.00,VWS V14.01,2014-01-01 08:55:00,
2014-01-01 04:00:00,38.4,37.1,30.33,NNW,333,0.0,0.0,95,0.00,,---,0.00,VWS V14.01,2014-01-01 09:00:00,
2014-01-01 04:05:00,38.5,37.2,30.33,NNW,333,0.0,0.0,95,0.00,,---,0.00,VWS V14.01,2014-01-01 09:05:00,
2014-01-01 04:10:00,39.0,37.7,30.33,NNW,333,2.0,2.0,95,0.00,,---,0.00,VWS V14.01,2014-01-01 09:10:00,
2014-01-01 04:15:00,39.8,38.5,30.33,NNW,333,2.0,4.0,95,0.00,,---,0.00,VWS V14.01,2014-01-01 09:15:00,
2014-01-01 04:20:00,40.1,39.0,30.33,NNW,333,0.0,4.0,96,0.00,,---,0.00,VWS V14.01,2014-01-01 09:20:00,
2014-01-01 04:25:00,39.8,38.5,30.33,NNW,333,0.0,4.0,95,0.00,,---,0.00,VWS V14.01,2014-01-01 09:25:00,
2014-01-01 04:30:00,39.6,38.3,30.33,NNW,333,0.0,4.0,95,0.00,,---,0.00,VWS V14.01,2014-01-01 09:30:00,
2014-01-01 04:35:00,39.3,37.7,30.33,NNW,333,0.0,4.0,94,0.00,,---,0.00,VWS V14.01,2014-01-01 09:35:00,
2014-01-01 04:40:00,39.0,37.4,30.33,NNW,333,0.0,4.0,94,0.00,,---,0.00,VWS V14.01,2014-01-01 09:40:00,
2014-01-01 04:45:00,38.8,37.2,30.33,NNW,333,0.0,4.0,94,0.00,,---,0.00,VWS V14.01,2014-01-01 09:45:00,
2014-01-01 04:50:00,38.8,37.2,30.33,NNW,333,0.0,4.0,94,0.00,,---,0.00,VWS V14.01,2014-01-01 09:50:00,
2014-01-01 04:55:00,38.8,37.5,30.33,NNW,333,0.0,4.0,95,0.00,,---,0.00,VWS V14.01,2014-01-01 09:55:00,
2014-01-01 05:00:00,38.8,37.5,30.33,NNW,333,0.0,4.0,95,0.00,,---,0.00,VWS V14.01,2014-01-01 10:00:00,
2014-01-01 05:05:00,38.8,37.5,30.33,NNW,333,0.0,0.0,95,0.00,,---,0.00,VWS V14.01,2014-01-01 10:05:00,
2014-01-01 05:10:00,38.8,37.5,30.33,NNW,333,0.0,0.0,95,0.00,,---,0.00,VWS V14.01,2014-01-01 10:10:00,
2014-01-01 05:15:00,38.7,37.4,30.34,NNW,333,0.0,0.0,95,0.00,,---,0.00,VWS V14.01,2014-01-01 10:15:00,
2014-01-01 05:20:00,38.7,37.4,30.33,NNW,333,0.0,0.0,95,0.00,,---,0.00,VWS V14.01,2014-01-01 10:20:00,
2014-01-01 05:25:00,38.7,37.4,30.34,NNW,333,0.0,0.0,95,0.00,,---,0.00,VWS V14.01,2014-01-01 10:25:00,
2014-01-01 05:30:00,38.8,37.5,30.34,NNW,333,0.0,0.0,95,0.00,,---,0.00,VWS V14.01,2014-01-01 10:30:00,
2014-01-01 05:35:00,39.0,37.7,30.33,NNW,333,0.0,0.0,95,0.00,,---,0.00,VWS V14.01,2014-01-01 10:35:00,
2014-01-01 05:40:00,39.3,38.0,30.33,NNW,333,0.0,0.0,95,0.00,,---,0.00,VWS V14.01,2014-01-01 10:40:00,
2014-01-01 05:45:00,39.5,38.2,30.33,NNW,333,0.0,0.0,95,0.00,,---,0.00,VWS V14.01,2014-01-01 10:45:00,
2014-01-01 05:50:00,39.8,38.5,30.33,NNW,333,0.0,0.0,95,0.00,,---,0.00,VWS V14.01,2014-01-01 10:50:00,
2014-01-01 05:55:00,39.9,38.6,30.33,NNW,333,0.0,0.0,95,0.00,,---,0.00,VWS V14.01,2014-01-01 10:55:00,
2014-01-01 06:00:00,40.0,38.7,30.33,NNW,333,0.0,0.0,95,0.00,,---,0.00,VWS V14.01,2014-01-01 11:00:00,
2014-01-01 06:05:00,40.0,38.7,30.33,NNW,333,0.0,0.0,95,0.00,,---,0.00,VWS V14.01,2014-01-01 11:05:00,
2014-01-01 06:10:00,40.0,38.7,30.33,NNW,333,0.0,0.0,95,0.00,,---,0.00,VWS V14.01,2014-01-01 11:10:00,
2014-01-01 06:15:00,40.2,38.9,30.33,NNW,333,0.0,0.0,95,0.00,,---,0.00,VWS V14.01,2014-01-01 11:15:00,
2014-01-01 06:20:00,40.3,39.0,30.34,NNW,333,0.0,0.0,95,0.00,,---,0.00,VWS V14.01,2014-01-01 11:20:00,
2014-01-01 06:25:00,40.3,39.0,30.33,NNW,333,0.0,0.0,95,0.00,,---,0.00,VWS V14.01,2014-01-01 11:25:00,
2014-01-01 06:30:00,40.4,39.1,30.33,NNW,333,0.0,0.0,95,0.00,,---,0.00,VWS V14.01,2014-01-01 11:30:00,
2014-01-01 06:35:00,40.5,39.2,30.34,NNW,333,0.0,0.0,95,0.00,,---,0.00,VWS V14.01,2014-01-01 11:35:00,
2014-01-01 06:40:00,40.6,39.3,30.33,NNW,333,0.0,0.0,95,0.00,,---,0.00,VWS V14.01,2014-01-01 11:40:00,
2014-01-01 06:45:00,40.7,39.4,30.33,NNW,333,1.0,2.0,95,0.00,,---,0.00,VWS V14.01,2014-01-01 11:45:00,
2014-01-01 06:50:00,40.8,39.5,30.34,NNW,333,0.0,2.0,95,0.00,,---,0.00,VWS V14.01,2014-01-01 11:50:00,
2014-01-01 06:55:00,40.9,39.6,30.34,NNW,333,0.0,2.0,95,0.00,,---,0.00,VWS V14.01,2014-01-01 11:55:00,
2014-01-01 07:00:00,40.9,39.3,30.34,NNW,333,1.0,1.0,94,0.00,,---,0.00,VWS V14.01,2014-01-01 12:00:00,
2014-01-01 07:05:00,41.1,39.5,30.35,NNW,333,1.0,4.0,94,0.00,,---,0.00,VWS V14.01,2014-01-01 12:05:00,
2014-01-01 07:10:00,41.4,39.5,30.35,NNW,333,0.0,4.0,93,0.00,,---,0.00,VWS V14.01,2014-01-01 12:10:00,
2014-01-01 07:15:00,41.6,39.7,30.35,NNW,333,4.0,4.0,93,0.00,,---,0.00,VWS V14.01,2014-01-01 12:15:00,
2014-01-01 07:20:00,41.8,39.4,30.35,NNW,333,2.0,4.0,91,0.00,,---,0.00,VWS V14.01,2014-01-01 12:20:00,
2014-01-01 07:25:00,42.0,39.6,30.35,NNW,333,0.0,4.0,91,0.00,,---,0.00,VWS V14.01,2014-01-01 12:25:00,
2014-01-01 07:30:00,42.0,39.6,30.35,NNW,333,0.0,4.0,91,0.00,,---,0.00,VWS V14.01,2014-01-01 12:30:00,
2014-01-01 07:35:00,42.0,39.6,30.35,NNW,333,0.0,4.0,91,0.00,,---,0.00,VWS V14.01,2014-01-01 12:35:00,
2014-01-01 07:40:00,42.0,39.3,30.35,NNW,333,0.0,4.0,90,0.00,,---,0.00,VWS V14.01,2014-01-01 12:40:00,
2014-01-01 07:45:00,41.9,39.2,30.36,NNW,333,0.0,4.0,90,0.00,,---,0.00,VWS V14.01,2014-01-01 12:45:00,
2014-01-01 07:50:00,42.0,39.3,30.36,NNW,333,0.0,4.0,90,0.00,,---,0.00,VWS V14.01,2014-01-01 12:50:00,
2014-01-01 07:55:00,42.0,39.3,30.36,NNW,333,2.0,4.0,90,0.00,,---,0.00,VWS V14.01,2014-01-01 12:55:00,
2014-01-01 08:00:00,42.2,39.2,30.36,NNW,333,4.0,4.0,89,0.00,,---,0.00,VWS V14.01,2014-01-01 13:00:00,
2014-01-01 08:05:00,42.4,39.4,30.36,NNW,333,4.0,4.0,89,0.00,,---,0.00,VWS V14.01,2014-01-01 13:05:00,
2014-01-01 08:10:00,42.6,39.3,30.36,NNW,333,2.0,4.0,88,0.00,,---,0.00,VWS V14.01,2014-01-01 13:10:00,
2014-01-01 08:15:00,42.7,39.1,30.36,NNW,333,1.0,4.0,87,0.00,,---,0.00,VWS V14.01,2014-01-01 13:15:00,
2014-01-01 08:20:00,42.9,39.3,30.36,NNW,333,0.0,4.0,87,0.00,,---,0.00,VWS V14.01,2014-01-01 13:20:00,
2014-01-01 08:25:00,43.1,39.2,30.37,NNW,333,2.0,4.0,86,0.00,,---,0.00,VWS V14.01,2014-01-01 13:25:00,
2014-01-01 08:30:00,43.2,39.3,30.37,NNW,333,0.0,5.0,86,0.00,,---,0.00,VWS V14.01,2014-01-01 13:30:00,
2014-01-01 08:35:00,43.3,39.1,30.37,NNW,333,4.0,5.0,85,0.00,,---,0.00,VWS V14.01,2014-01-01 13:35:00,
2014-01-01 08:40:00,43.4,39.2,30.37,NNW,333,1.0,5.0,85,0.00,,---,0.00,VWS V14.01,2014-01-01 13:40:00,
2014-01-01 08:45:00,43.6,39.4,30.37,NNW,333,2.0,5.0,85,0.00,,---,0.00,VWS V14.01,2014-01-01 13:45:00,
2014-01-01 08:50:00,43.7,39.5,30.37,NNW,333,2.0,5.0,85,0.00,,---,0.00,VWS V14.01,2014-01-01 13:50:00,
2014-01-01 08:55:00,43.8,39.6,30.38,NNW,333,2.0,5.0,85,0.00,,---,0.00,VWS V14.01,2014-01-01 13:55:00,
2014-01-01 09:00:00,44.0,39.5,30.37,NNW,333,4.0,4.0,84,0.00,,---,0.00,VWS V14.01,2014-01-01 14:00:00,
2014-01-01 09:05:00,44.2,39.7,30.37,NNW,333,2.0,4.0,84,0.00,,---,0.00,VWS V14.01,2014-01-01 14:05:00,
2014-01-01 09:10:00,44.3,39.5,30.37,NNW,333,5.0,5.0,83,0.00,,---,0.00,VWS V14.01,2014-01-01 14:10:00,
2014-01-01 09:15:00,44.5,39.4,30.37,NNW,333,5.0,5.0,82,0.00,,---,0.00,VWS V14.01,2014-01-01 14:15:00,
2014-01-01 09:20:00,44.6,39.1,30.37,NNW,333,2.0,6.0,81,0.00,,---,0.00,VWS V14.01,2014-01-01 14:20:00,
2014-01-01 09:25:00,44.8,39.0,30.37,NNW,333,4.0,6.0,80,0.00,,---,0.00,VWS V14.01,2014-01-01 14:25:00,
2014-01-01 09:30:00,44.9,38.5,30.37,NNW,333,4.0,6.0,78,0.00,,---,0.00,VWS V14.01,2014-01-01 14:30:00,
2014-01-01 09:35:00,45.2,38.4,30.37,NNW,333,2.0,7.0,77,0.00,,---,0.00,VWS V14.01,2014-01-01 14:35:00,
2014-01-01 09:40:00,45.4,38.6,30.37,NNW,333,0.0,7.0,77,0.00,,---,0.00,VWS V14.01,2014-01-01 14:40:00,
2014-01-01 09:45:00,45.6,38.5,30.37,NNW,333,0.0,7.0,76,0.00,,---,0.00,VWS V14.01,2014-01-01 14:45:00,
2014-01-01 09:50:00,45.7,38.2,30.37,NNW,333,2.0,7.0,75,0.00,,---,0.00,VWS V14.01,2014-01-01 14:50:00,
2014-01-01 09:55:00,45.9,38.4,30.37,NNW,334,2.0,7.0,75,0.00,,---,0.00,VWS V14.01,2014-01-01 14:55:00,
2014-01-01 10:00:00,46.1,38.6,30.37,NNW,335,2.0,4.0,75,0.00,,---,0.00,VWS V14.01,2014-01-01 15:00:00,
2014-01-01 10:05:00,46.1,37.9,30.36,North,355,4.0,8.0,73,0.00,,---,0.00,VWS V14.01,2014-01-01 15:05:00,
2014-01-01 10:10:00,46.3,37.8,30.37,NNE,20,5.0,8.0,72,0.00,,---,0.00,VWS V14.01,2014-01-01 15:10:00,
2014-01-01 10:15:00,46.5,37.6,30.36,NNE,20,3.0,8.0,71,0.00,,---,0.00,VWS V14.01,2014-01-01 15:15:00,
2014-01-01 10:20:00,46.7,37.1,30.36,NNE,28,5.0,8.0,69,0.00,,---,0.00,VWS V14.01,2014-01-01 15:20:00,
2014-01-01 10:25:00,46.9,37.3,30.36,NE,44,2.0,8.0,69,0.00,,---,0.00,VWS V14.01,2014-01-01 15:25:00,
2014-01-01 10:30:00,47.2,37.6,30.36,NE,44,2.0,8.0,69,0.00,,---,0.00,VWS V14.01,2014-01-01 15:30:00,
2014-01-01 10:35:00,47.3,36.9,30.36,NE,44,3.0,8.0,67,0.00,,---,0.00,VWS V14.01,2014-01-01 15:35:00,
2014-01-01 10:40:00,47.4,37.4,30.36,NE,44,1.0,8.0,68,0.00,,---,0.00,VWS V14.01,2014-01-01 15:40:00,
2014-01-01 10:45:00,47.6,37.2,30.35,NE,51,4.0,8.0,67,0.00,,---,0.00,VWS V14.01,2014-01-01 15:45:00,
2014-01-01 10:50:00,47.7,37.7,30.35,ENE,63,3.0,8.0,68,0.00,,---,0.00,VWS V14.01,2014-01-01 15:50:00,
2014-01-01 10:55:00,47.9,37.5,30.34,ENE,67,1.0,8.0,67,0.00,,---,0.00,VWS V14.01,2014-01-01 15:55:00,
2014-01-01 11:00:00,48.2,37.8,30.34,ENE,67,3.0,3.0,67,0.00,,---,0.00,VWS V14.01,2014-01-01 16:00:00,
2014-01-01 11:05:00,48.5,37.7,30.34,ENE,62,1.0,5.0,66,0.00,,---,0.00,VWS V14.01,2014-01-01 16:05:00,
2014-01-01 11:10:00,48.8,36.8,30.34,ENE,58,2.0,5.0,63,0.00,,---,0.00,VWS V14.01,2014-01-01 16:10:00,
2014-01-01 11:15:00,49.1,37.1,30.33,ENE,57,4.0,5.0,63,0.00,,---,0.00,VWS V14.01,2014-01-01 16:15:00,
2014-01-01 11:20:00,49.4,37.3,30.33,ENE,57,2.0,5.0,63,0.00,,---,0.00,VWS V14.01,2014-01-01 16:20:00,
2014-01-01 11:25:00,49.6,37.1,30.32,NE,36,6.0,7.0,62,0.00,,---,0.00,VWS V14.01,2014-01-01 16:25:00,
2014-01-01 11:30:00,49.7,36.8,30.32,NE,55,1.0,7.0,61,0.00,,---,0.00,VWS V14.01,2014-01-01 16:30:00,
2014-01-01 11:35:00,50.0,36.7,30.32,NNE,32,5.0,7.0,60,0.00,,---,0.00,VWS V14.01,2014-01-01 16:35:00,
2014-01-01 11:40:00,50.0,36.2,30.32,NE,53,4.0,7.0,59,0.00,,---,0.00,VWS V14.01,2014-01-01 16:40:00,
2014-01-01 11:45:00,50.1,36.3,30.31,NE,42,4.0,7.0,59,0.00,,---,0.00,VWS V14.01,2014-01-01 16:45:00,
2014-01-01 11:50:00,50.1,35.9,30.31,NE,42,5.0,7.0,58,0.00,,---,0.00,VWS V14.01,2014-01-01 16:50:00,
2014-01-01 11:55:00,50.3,36.1,30.30,ENE,58,3.0,7.0,58,0.00,,---,0.00,VWS V14.01,2014-01-01 16:55:00,
2014-01-01 12:00:00,50.4,36.6,30.30,NE,53,4.0,6.0,59,0.00,,---,0.00,VWS V14.01,2014-01-01 17:00:00,
2014-01-01 12:05:00,50.6,36.8,30.30,NNE,33,3.0,6.0,59,0.00,,---,0.00,VWS V14.01,2014-01-01 17:05:00,
2014-01-01 12:10:00,50.5,37.2,30.30,NE,35,1.0,6.0,60,0.00,,---,0.00,VWS V14.01,2014-01-01 17:10:00,
2014-01-01 12:15:00,50.5,37.2,30.30,NE,39,5.0,6.0,60,0.00,,---,0.00,VWS V14.01,2014-01-01 17:15:00,
2014-01-01 12:20:00,50.4,37.0,30.30,NNE,16,2.0,7.0,60,0.00,,---,0.00,VWS V14.01,2014-01-01 17:20:00,
2014-01-01 12:25:00,50.5,37.2,30.29,North,5,4.0,7.0,60,0.00,,---,0.00,VWS V14.01,2014-01-01 17:25:00,
2014-01-01 12:30:00,50.6,36.8,30.29,NE,36,3.0,8.0,59,0.00,,---,0.00,VWS V14.01,2014-01-01 17:30:00,
2014-01-01 12:35:00,50.5,36.7,30.29,NE,46,0.0,8.0,59,0.00,,---,0.00,VWS V14.01,2014-01-01 17:35:00,
2014-01-01 12:40:00,50.7,37.8,30.29,NE,40,2.0,8.0,61,0.00,,---,0.00,VWS V14.01,2014-01-01 17:40:00,
2014-01-01 12:45:00,50.9,37.5,30.28,NNE,30,3.0,8.0,60,0.00,,---,0.00,VWS V14.01,2014-01-01 17:45:00,
2014-01-01 12:50:00,50.8,37.8,30.28,NNE,30,1.0,8.0,61,0.00,,---,0.00,VWS V14.01,2014-01-01 17:50:00,
2014-01-01 12:55:00,50.8,38.3,30.29,NNE,22,0.0,8.0,62,0.00,,---,0.00,VWS V14.01,2014-01-01 17:55:00,
2014-01-01 13:00:00,50.9,38.0,30.28,NNE,24,2.0,3.0,61,0.00,,---,0.00,VWS V14.01,2014-01-01 18:00:00,
2014-01-01 13:05:00,50.9,38.0,30.28,NNE,24,1.0,4.0,61,0.00,,---,0.00,VWS V14.01,2014-01-01 18:05:00,
2014-01-01 13:10:00,51.0,38.5,30.27,NNE,23,1.0,4.0,62,0.00,,---,0.00,VWS V14.01,2014-01-01 18:10:00,
2014-01-01 13:15:00,51.1,38.5,30.27,NNE,23,2.0,5.0,62,0.00,,---,0.00,VWS V14.01,2014-01-01 18:15:00,
2014-01-01 13:20:00,51.0,38.9,30.27,NNE,23,5.0,5.0,63,0.00,,---,0.00,VWS V14.01,2014-01-01 18:20:00,
2014-01-01 13:25:00,50.9,39.2,30.27,NNE,21,4.0,5.0,64,0.00,,---,0.00,VWS V14.01,2014-01-01 18:25:00,
2014-01-01 13:30:00,50.8,39.5,30.27,NNE,19,2.0,5.0,65,0.00,,---,0.00,VWS V14.01,2014-01-01 18:30:00,
2014-01-01 13:35:00,50.6,40.1,30.26,NNE,15,4.0,5.0,67,0.00,,---,0.00,VWS V14.01,2014-01-01 18:35:00,
2014-01-01 13:40:00,50.8,40.6,30.26,North,10,3.0,6.0,68,0.00,,---,0.00,VWS V14.01,2014-01-01 18:40:00,
2014-01-01 13:45:00,50.8,40.6,30.26,North,9,5.0,6.0,68,0.00,,---,0.00,VWS V14.01,2014-01-01 18:45:00,
2014-01-01 13:50:00,50.6,40.4,30.25,North,9,5.0,6.0,68,0.00,,---,0.00,VWS V14.01,2014-01-01 18:50:00,
2014-01-01 13:55:00,50.5,40.3,30.25,NNE,19,3.0,6.0,68,0.00,,---,0.00,VWS V14.01,2014-01-01 18:55:00,
2014-01-01 14:00:00,50.5,40.3,30.25,NNE,19,5.0,6.0,68,0.00,,---,0.00,VWS V14.01,2014-01-01 19:00:00,
2014-01-01 14:05:00,50.4,41.0,30.25,NNE,14,5.0,6.0,70,0.00,,---,0.00,VWS V14.01,2014-01-01 19:05:00,
2014-01-01 14:10:00,50.3,40.5,30.25,North,9,4.0,7.0,69,0.00,,---,0.00,VWS V14.01,2014-01-01 19:10:00,
2014-01-01 14:15:00,50.4,41.0,30.25,North,5,1.0,7.0,70,0.00,,---,0.00,VWS V14.01,2014-01-01 19:15:00,
2014-01-01 14:20:00,50.6,41.6,30.24,North,360,5.0,7.0,71,0.00,,---,0.00,VWS V14.01,2014-01-01 19:20:00,
2014-01-01 14:25:00,50.5,40.3,30.24,NNE,19,4.0,8.0,68,0.00,,---,0.00,VWS V14.01,2014-01-01 19:25:00,
2014-01-01 14:30:00,50.4,41.0,30.24,NNE,19,1.0,8.0,70,0.00,,---,0.00,VWS V14.01,2014-01-01 19:30:00,
2014-01-01 14:35:00,50.3,40.5,30.24,NNE,24,5.0,8.0,69,0.00,,---,0.00,VWS V14.01,2014-01-01 19:35:00,
2014-01-01 14:40:00,50.2,40.8,30.24,NNE,15,0.0,8.0,70,0.00,,---,0.00,VWS V14.01,2014-01-01 19:40:00,
2014-01-01 14:45:00,50.0,41.0,30.24,North,355,5.0,8.0,71,0.00,,---,0.00,VWS V14.01,2014-01-01 19:45:00,
2014-01-01 14:50:00,50.0,41.0,30.24,North,355,5.0,8.0,71,0.00,,---,0.00,VWS V14.01,2014-01-01 19:50:00,
2014-01-01 14:55:00,49.9,40.9,30.24,North,355,2.0,8.0,71,0.00,,---,0.00,VWS V14.01,2014-01-01 19:55:00,
2014-01-01 15:00:00,49.9,41.6,30.24,NNW,340,5.0,8.0,73,0.00,,---,0.00,VWS V14.01,2014-01-01 20:00:00,
2014-01-01 15:05:00,49.8,41.5,30.24,NNW,335,5.0,8.0,73,0.00,,---,0.00,VWS V14.01,2014-01-01 20:05:00,
2014-01-01 15:10:00,49.7,41.0,30.24,NNW,331,6.0,9.0,72,0.00,,---,0.00,VWS V14.01,2014-01-01 20:10:00,
2014-01-01 15:15:00,49.4,41.5,30.24,NNW,331,5.0,9.0,74,0.00,,---,0.00,VWS V14.01,2014-01-01 20:15:00,
2014-01-01 15:20:00,49.2,42.0,30.25,NW,324,1.0,9.0,76,0.00,,---,0.00,VWS V14.01,2014-01-01 20:20:00,
2014-01-01 15:25:00,48.5,42.3,30.24,NNW,328,4.0,10.0,79,0.02,,---,0.02,VWS V14.01,2014-01-01 20:25:00,
2014-01-01 15:30:00,47.9,42.4,30.25,NNW,327,5.0,10.0,81,0.03,,---,0.03,VWS V14.01,2014-01-01 20:30:00,
2014-01-01 15:35:00,47.2,42.3,30.24,NNE,30,6.0,10.0,83,0.05,,---,0.05,VWS V14.01,2014-01-01 20:35:00,
2014-01-01 15:40:00,46.6,42.3,30.24,NNE,31,3.0,10.0,85,0.05,,---,0.05,VWS V14.01,2014-01-01 20:40:00,
2014-01-01 15:45:00,46.2,42.2,30.24,NNE,24,3.0,10.0,86,0.05,,---,0.05,VWS V14.01,2014-01-01 20:45:00,
2014-01-01 15:50:00,46.0,42.0,30.24,NNE,24,4.0,10.0,86,0.05,,---,0.05,VWS V14.01,2014-01-01 20:50:00,
2014-01-01 15:55:00,46.1,42.8,30.24,North,9,3.0,10.0,88,0.05,,---,0.05,VWS V14.01,2014-01-01 20:55:00,
2014-01-01 16:00:00,46.2,42.8,30.24,North,9,1.0,1.0,88,0.05,,---,0.05,VWS V14.01,2014-01-01 21:00:00,
2014-01-01 16:05:00,46.0,42.7,30.23,NNE,19,3.0,5.0,88,0.05,,---,0.05,VWS V14.01,2014-01-01 21:05:00,
2014-01-01 16:10:00,45.8,42.5,30.23,NNE,13,4.0,8.0,88,0.05,,---,0.05,VWS V14.01,2014-01-01 21:10:00,
2014-01-01 16:15:00,45.7,42.1,30.23,NE,48,4.0,8.0,87,0.05,,---,0.05,VWS V14.01,2014-01-01 21:15:00,
2014-01-01 16:20:00,45.8,42.5,30.23,NE,47,3.0,8.0,88,0.05,,---,0.05,VWS V14.01,2014-01-01 21:20:00,
2014-01-01 16:25:00,45.9,42.8,30.23,NE,46,4.0,8.0,89,0.05,,---,0.05,VWS V14.01,2014-01-01 21:25:00,
2014-01-01 16:30:00,45.8,42.5,30.23,NNE,25,4.0,8.0,88,0.05,,---,0.05,VWS V14.01,2014-01-01 21:30:00,
2014-01-01 16:35:00,45.8,42.8,30.23,NNE,24,3.0,8.0,89,0.05,,---,0.05,VWS V14.01,2014-01-01 21:35:00,
2014-01-01 16:40:00,45.8,42.8,30.23,NNE,23,4.0,8.0,89,0.05,,---,0.05,VWS V14.01,2014-01-01 21:40:00,
2014-01-01 16:45:00,45.7,42.7,30.23,NNE,23,1.0,8.0,89,0.05,,---,0.05,VWS V14.01,2014-01-01 21:45:00,
2014-01-01 16:50:00,45.7,42.7,30.23,NNE,24,4.0,8.0,89,0.05,,---,0.05,VWS V14.01,2014-01-01 21:50:00,
2014-01-01 16:55:00,45.8,42.8,30.23,NNE,26,3.0,8.0,89,0.05,,---,0.05,VWS V14.01,2014-01-01 21:55:00,
2014-01-01 17:00:00,45.8,42.8,30.23,NNE,26,3.0,4.0,89,0.00,,---,0.05,VWS V14.01,2014-01-01 22:00:00,
2014-01-01 17:05:00,45.7,42.7,30.23,NNE,22,4.0,7.0,89,0.00,,---,0.05,VWS V14.01,2014-01-01 22:05:00,
2014-01-01 17:10:00,45.7,42.7,30.22,NNE,23,4.0,7.0,89,0.00,,---,0.05,VWS V14.01,2014-01-01 22:10:00,
2014-01-01 17:15:00,45.7,42.7,30.22,NNE,22,2.0,7.0,89,0.00,,---,0.05,VWS V14.01,2014-01-01 22:15:00,
2014-01-01 17:20:00,45.7,42.7,30.22,NNE,22,4.0,7.0,89,0.00,,---,0.05,VWS V14.01,2014-01-01 22:20:00,
2014-01-01 17:25:00,45.8,43.0,30.22,NNE,23,2.0,7.0,90,0.00,,---,0.05,VWS V14.01,2014-01-01 22:25:00,
2014-01-01 17:30:00,45.8,43.0,30.22,NNE,23,2.0,7.0,90,0.00,,---,0.05,VWS V14.01,2014-01-01 22:30:00,
2014-01-01 17:35:00,45.9,43.1,30.23,NNE,19,4.0,7.0,90,0.00,,---,0.05,VWS V14.01,2014-01-01 22:35:00,
2014-01-01 17:40:00,45.9,43.1,30.23,NNE,17,1.0,7.0,90,0.00,,---,0.05,VWS V14.01,2014-01-01 22:40:00,
2014-01-01 17:45:00,45.7,42.9,30.22,NNE,18,5.0,7.0,90,0.00,,---,0.05,VWS V14.01,2014-01-01 22:45:00,
2014-01-01 17:50:00,45.7,42.9,30.22,NNE,18,1.0,7.0,90,0.01,,---,0.06,VWS V14.01,2014-01-01 22:50:00,
2014-01-01 17:55:00,45.7,42.9,30.22,NNE,18,3.0,7.0,90,0.01,,---,0.06,VWS V14.01,2014-01-01 22:55:00,
2014-01-01 18:00:00,45.7,43.2,30.22,NNE,17,2.0,3.0,91,0.01,,---,0.06,VWS V14.01,2014-01-01 23:00:00,
2014-01-01 18:05:00,45.9,43.4,30.22,NNE,17,4.0,4.0,91,0.01,,---,0.06,VWS V14.01,2014-01-01 23:05:00,
2014-01-01 18:10:00,45.7,43.2,30.22,NNE,17,4.0,4.0,91,0.01,,---,0.06,VWS V14.01,2014-01-01 23:10:00,
2014-01-01 18:15:00,45.6,43.1,30.22,NNE,17,2.0,5.0,91,0.01,,---,0.06,VWS V14.01,2014-01-01 23:15:00,
2014-01-01 18:20:00,45.6,43.4,30.22,NNE,17,1.0,5.0,92,0.01,,---,0.06,VWS V14.01,2014-01-01 23:20:00,
2014-01-01 18:25:00,45.6,43.4,30.22,NNE,17,4.0,5.0,92,0.01,,---,0.06,VWS V14.01,2014-01-01 23:25:00,
2014-01-01 18:30:00,45.7,43.5,30.22,NNE,17,4.0,5.0,92,0.02,,---,0.07,VWS V14.01,2014-01-01 23:30:00,
2014-01-01 18:35:00,45.7,43.5,30.23,NNE,17,2.0,5.0,92,0.02,,---,0.07,VWS V14.01,2014-01-01 23:35:00,
2014-01-01 18:40:00,45.8,43.6,30.23,NNE,17,1.0,5.0,92,0.02,,---,0.07,VWS V14.01,2014-01-01 23:40:00,
2014-01-01 18:45:00,45.8,43.6,30.22,NNE,17,2.0,5.0,92,0.02,,---,0.07,VWS V14.01,2014-01-01 23:45:00,
2014-01-01 18:50:00,45.7,43.5,30.22,NNE,17,3.0,5.0,92,0.02,,---,0.07,VWS V14.01,2014-01-01 23:50:00,
2014-01-01 18:55:00,45.7,43.5,30.22,NNE,17,3.0,5.0,92,0.02,,---,0.07,VWS V14.01,2014-01-01 23:55:00,
2014-01-01 19:00:00,45.7,43.5,30.22,NNE,17,1.0,2.0,92,0.01,,---,0.07,VWS V14.01,2014-01-02 00:00:00,
2014-01-01 19:05:00,45.8,43.6,30.22,NNE,17,2.0,3.0,92,0.01,,---,0.07,VWS V14.01,2014-01-02 00:05:00,
2014-01-01 19:10:00,45.8,43.6,30.22,NNE,17,3.0,3.0,92,0.02,,---,0.08,VWS V14.01,2014-01-02 00:10:00,
2014-01-01 19:15:00,46.0,43.8,30.22,NNE,17,2.0,4.0,92,0.02,,---,0.08,VWS V14.01,2014-01-02 00:15:00,
2014-01-01 19:20:00,45.9,44.0,30.22,NNE,17,1.0,4.0,93,0.03,,---,0.09,VWS V14.01,2014-01-02 00:20:00,
2014-01-01 19:25:00,45.9,43.7,30.22,NNE,17,1.0,4.0,92,0.03,,---,0.09,VWS V14.01,2014-01-02 00:25:00,
2014-01-01 19:30:00,45.9,44.0,30.22,NNE,17,0.0,4.0,93,0.03,,---,0.09,VWS V14.01,2014-01-02 00:30:00,
2014-01-01 19:35:00,45.8,43.9,30.22,NNE,17,1.0,4.0,93,0.03,,---,0.09,VWS V14.01,2014-01-02 00:35:00,
2014-01-01 19:40:00,45.8,43.9,30.22,NNE,17,2.0,4.0,93,0.04,,---,0.10,VWS V14.01,2014-01-02 00:40:00,
2014-01-01 19:45:00,45.9,44.0,30.22,NNE,17,2.0,4.0,93,0.04,,---,0.10,VWS V14.01,2014-01-02 00:45:00,
2014-01-01 19:50:00,45.8,43.9,30.22,NNE,17,3.0,4.0,93,0.04,,---,0.10,VWS V14.01,2014-01-02 00:50:00,
2014-01-01 19:55:00,45.9,44.0,30.22,NNE,17,2.0,4.0,93,0.04,,---,0.10,VWS V14.01,2014-01-02 00:55:00,
2014-01-01 20:00:00,45.8,43.9,30.21,NNE,17,3.0,3.0,93,0.03,,---,0.10,VWS V14.01,2014-01-02 01:00:00,
2014-01-01 20:05:00,45.7,43.8,30.20,NNE,17,3.0,5.0,93,0.04,,---,0.11,VWS V14.01,2014-01-02 01:05:00,
2014-01-01 20:10:00,45.7,43.8,30.20,NNE,17,3.0,5.0,93,0.04,,---,0.11,VWS V14.01,2014-01-02 01:10:00,
2014-01-01 20:15:00,45.7,43.8,30.20,NNE,17,2.0,5.0,93,0.04,,---,0.11,VWS V14.01,2014-01-02 01:15:00,
2014-01-01 20:20:00,45.8,43.9,30.20,NNE,17,3.0,6.0,93,0.04,,---,0.11,VWS V14.01,2014-01-02 01:20:00,
2014-01-01 20:25:00,45.7,43.8,30.20,NNE,16,3.0,6.0,93,0.04,,---,0.11,VWS V14.01,2014-01-02 01:25:00,
2014-01-01 20:30:00,45.8,43.9,30.20,NNE,12,3.0,6.0,93,0.04,,---,0.11,VWS V14.01,2014-01-02 01:30:00,
2014-01-01 20:35:00,45.7,43.8,30.20,NNE,14,3.0,6.0,93,0.04,,---,0.11,VWS V14.01,2014-01-02 01:35:00,
2014-01-01 20:40:00,45.7,43.8,30.19,NNE,13,4.0,6.0,93,0.05,,---,0.12,VWS V14.01,2014-01-02 01:40:00,
2014-01-01 20:45:00,45.7,43.8,30.18,NNE,13,3.0,6.0,93,0.05,,---,0.12,VWS V14.01,2014-01-02 01:45:00,
2014-01-01 20:50:00,45.6,43.7,30.18,NNE,21,5.0,6.0,93,0.05,,---,0.12,VWS V14.01,2014-01-02 01:50:00,
2014-01-01 20:55:00,45.7,43.8,30.18,NNE,25,1.0,6.0,93,0.05,,---,0.12,VWS V14.01,2014-01-02 01:55:00,
2014-01-01 21:00:00,45.7,43.8,30.18,NNE,25,0.0,0.0,93,0.03,,---,0.13,VWS V14.01,2014-01-02 02:00:00,
2014-01-01 21:05:00,45.6,43.7,30.18,NNE,25,4.0,5.0,93,0.03,,---,0.13,VWS V14.01,2014-01-02 02:05:00,
2014-01-01 21:10:00,45.7,43.8,30.18,NNE,25,0.0,5.0,93,0.03,,---,0.13,VWS V14.01,2014-01-02 02:10:00,
2014-01-01 21:15:00,45.7,43.8,30.17,NNE,25,3.0,5.0,93,0.03,,---,0.13,VWS V14.01,2014-01-02 02:15:00,
2014-01-01 21:20:00,45.7,44.1,30.17,NNE,25,3.0,5.0,94,0.03,,---,0.13,VWS V14.01,2014-01-02 02:20:00,
2014-01-01 21:25:00,45.7,43.8,30.17,NNE,25,3.0,5.0,93,0.03,,---,0.13,VWS V14.01,2014-01-02 02:25:00,
2014-01-01 21:30:00,45.7,44.1,30.17,NNE,25,3.0,5.0,94,0.03,,---,0.13,VWS V14.01,2014-01-02 02:30:00,
2014-01-01 21:35:00,45.8,44.2,30.16,NNE,25,2.0,5.0,94,0.03,,---,0.13,VWS V14.01,2014-01-02 02:35:00,
2014-01-01 21:40:00,45.7,44.1,30.16,NNE,25,1.0,5.0,94,0.03,,---,0.13,VWS V14.01,2014-01-02 02:40:00,
2014-01-01 21:45:00,45.7,43.8,30.17,NNE,25,0.0,5.0,93,0.03,,---,0.13,VWS V14.01,2014-01-02 02:45:00,
2014-01-01 21:50:00,45.8,44.2,30.17,NNE,25,0.0,5.0,94,0.03,,---,0.13,VWS V14.01,2014-01-02 02:50:00,
2014-01-01 21:55:00,45.8,44.2,30.17,NNE,25,3.0,5.0,94,0.03,,---,0.13,VWS V14.01,2014-01-02 02:55:00,
2014-01-01 22:00:00,45.8,44.2,30.16,NNE,25,1.0,2.0,94,0.01,,---,0.13,VWS V14.01,2014-01-02 03:00:00,
2014-01-01 22:05:00,45.9,44.3,30.16,NNE,25,3.0,3.0,94,0.01,,---,0.13,VWS V14.01,2014-01-02 03:05:00,
2014-01-01 22:10:00,45.9,44.3,30.16,NNE,25,0.0,3.0,94,0.01,,---,0.13,VWS V14.01,2014-01-02 03:10:00,
2014-01-01 22:15:00,45.9,44.3,30.16,NNE,25,2.0,3.0,94,0.01,,---,0.13,VWS V14.01,2014-01-02 03:15:00,
2014-01-01 22:20:00,46.0,44.4,30.16,NNE,25,2.0,4.0,94,0.01,,---,0.13,VWS V14.01,2014-01-02 03:20:00,
2014-01-01 22:25:00,46.1,44.5,30.16,NNE,25,2.0,4.0,94,0.01,,---,0.13,VWS V14.01,2014-01-02 03:25:00,
2014-01-01 22:30:00,46.1,44.5,30.16,NNE,25,3.0,4.0,94,0.01,,---,0.13,VWS V14.01,2014-01-02 03:30:00,
2014-01-01 22:35:00,46.1,44.5,30.16,NNE,24,3.0,5.0,94,0.01,,---,0.13,VWS V14.01,2014-01-02 03:35:00,
2014-01-01 22:40:00,46.1,44.5,30.16,NNE,24,2.0,5.0,94,0.01,,---,0.13,VWS V14.01,2014-01-02 03:40:00,
2014-01-01 22:45:00,46.1,44.5,30.15,NNE,24,2.0,5.0,94,0.01,,---,0.13,VWS V14.01,2014-01-02 03:45:00,
2014-01-01 22:50:00,46.0,44.4,30.16,NNE,24,1.0,5.0,94,0.01,,---,0.13,VWS V14.01,2014-01-02 03:50:00,
2014-01-01 22:55:00,46.0,44.4,30.16,NNE,24,2.0,5.0,94,0.01,,---,0.13,VWS V14.01,2014-01-02 03:55:00,
2014-01-01 23:00:00,46.0,44.4,30.16,NNE,24,1.0,2.0,94,0.00,,---,0.13,VWS V14.01,2014-01-02 04:00:00,
2014-01-01 23:06:00,46.1,44.5,30.15,NNE,24,0.0,2.0,94,0.00,,---,0.13,VWS V14.01,2014-01-02 04:06:00,
2014-01-01 23:11:00,46.1,44.5,30.14,NNE,24,1.0,3.0,94,0.00,,---,0.13,VWS V14.01,2014-01-02 04:11:00,
2014-01-01 23:16:00,46.1,44.5,30.13,NNE,24,0.0,3.0,94,0.00,,---,0.13,VWS V14.01,2014-01-02 04:16:00,
2014-01-01 23:21:00,46.1,44.5,30.13,NNE,24,0.0,3.0,94,0.00,,---,0.13,VWS V14.01,2014-01-02 04:21:00,
2014-01-01 23:26:00,46.2,44.6,30.13,NNE,24,0.0,3.0,94,0.00,,---,0.13,VWS V14.01,2014-01-02 04:26:00,
2014-01-01 23:31:00,46.3,44.7,30.12,NNE,24,4.0,4.0,94,0.00,,---,0.13,VWS V14.01,2014-01-02 04:31:00,
2014-01-01 23:36:00,46.4,44.8,30.13,NNE,24,2.0,4.0,94,0.00,,---,0.13,VWS V14.01,2014-01-02 04:36:00,
2014-01-01 23:41:00,46.4,44.8,30.13,NNE,24,2.0,4.0,94,0.00,,---,0.13,VWS V14.01,2014-01-02 04:41:00,
2014-01-01 23:46:00,46.5,44.9,30.13,NNE,24,0.0,4.0,94,0.00,,---,0.13,VWS V14.01,2014-01-02 04:46:00,
2014-01-01 23:51:00,46.7,45.1,30.13,NNE,24,4.0,4.0,94,0.00,,---,0.13,VWS V14.01,2014-01-02 04:51:00,
2014-01-01 23:56:00,46.7,45.1,30.13,NNE,24,0.0,5.0,94,0.00,,---,0.13,VWS V14.01,2014-01-02 04:56:00,